createdAt,value
2019-06-26T00:00:58.155Z,20.59
2019-06-26T00:01:58.134Z,20.56
2019-06-26T00:02:58.168Z,20.56
2019-06-26T00:03:58.149Z,20.58
2019-06-26T00:04:58.094Z,20.53
2019-06-26T00:05:58.082Z,20.53
2019-06-26T00:06:58.112Z,20.40
2019-06-26T00:07:58.060Z,20.40
2019-06-26T00:08:58.053Z,20.32
2019-06-26T00:09:58.039Z,20.36
2019-06-26T00:10:58.034Z,20.34
2019-06-26T00:11:58.045Z,20.33
2019-06-26T00:12:58.010Z,20.26
2019-06-26T00:13:58.010Z,20.18
2019-06-26T00:14:57.988Z,20.17
2019-06-26T00:15:57.981Z,20.19
2019-06-26T00:16:57.969Z,20.22
2019-06-26T00:17:57.956Z,20.22
2019-06-26T00:18:57.945Z,20.22
2019-06-26T00:19:57.935Z,20.21
2019-06-26T00:20:57.933Z,20.18
2019-06-26T00:21:57.914Z,20.19
2019-06-26T00:22:57.921Z,20.18
2019-06-26T00:23:57.894Z,20.21
2019-06-26T00:24:57.892Z,20.17
2019-06-26T00:25:57.874Z,20.19
2019-06-26T00:26:57.857Z,20.18
2019-06-26T00:27:57.856Z,20.17
2019-06-26T00:28:57.884Z,20.08
2019-06-26T00:29:57.842Z,20.11
2019-06-26T00:30:57.827Z,20.21
2019-06-26T00:31:57.813Z,20.08
2019-06-26T00:32:57.800Z,20.10
2019-06-26T00:33:57.793Z,20.12
2019-06-26T00:34:57.779Z,20.10
2019-06-26T00:35:57.766Z,20.10
2019-06-26T00:36:57.754Z,20.11
2019-06-26T00:37:57.750Z,20.14
2019-06-26T00:38:57.740Z,20.10
2019-06-26T00:39:57.727Z,20.11
2019-06-26T00:40:57.708Z,20.12
2019-06-26T00:41:57.699Z,20.10
2019-06-26T00:42:57.693Z,20.12
2019-06-26T00:43:57.688Z,20.07
2019-06-26T00:44:57.671Z,19.96
2019-06-26T00:45:57.663Z,20.12
2019-06-26T00:46:57.656Z,20.04
2019-06-26T00:47:57.642Z,20.07
2019-06-26T00:48:57.633Z,20.14
2019-06-26T00:49:57.620Z,20.08
2019-06-26T00:50:57.604Z,20.11
2019-06-26T00:51:57.616Z,20.07
2019-06-26T00:52:57.613Z,20.14
2019-06-26T00:53:57.578Z,20.10
2019-06-26T00:54:57.614Z,20.07
2019-06-26T00:55:57.555Z,20.14
2019-06-26T00:56:57.545Z,20.02
2019-06-26T00:57:57.542Z,20.14
2019-06-26T00:58:57.523Z,20.08
2019-06-26T00:59:57.515Z,20.10
2019-06-26T01:00:57.517Z,20.10
2019-06-26T01:01:57.494Z,20.12
2019-06-26T01:02:57.482Z,20.04
2019-06-26T01:03:57.480Z,20.08
2019-06-26T01:04:57.544Z,20.10
2019-06-26T01:05:57.448Z,20.03
2019-06-26T01:06:57.437Z,20.04
2019-06-26T01:07:57.430Z,20.07
2019-06-26T01:08:57.415Z,20.11
2019-06-26T01:09:57.401Z,20.07
2019-06-26T01:10:57.419Z,20.04
2019-06-26T01:11:57.390Z,20.10
2019-06-26T01:12:57.377Z,20.07
2019-06-26T01:13:58.443Z,20.10
2019-06-26T01:14:57.349Z,20.10
2019-06-26T01:15:57.345Z,20.12
2019-06-26T01:16:57.330Z,20.08
2019-06-26T01:17:57.324Z,20.10
2019-06-26T01:18:57.310Z,20.08
2019-06-26T01:19:57.298Z,20.10
2019-06-26T01:20:57.289Z,20.03
2019-06-26T01:21:57.278Z,20.10
2019-06-26T01:22:57.268Z,20.00
2019-06-26T01:23:57.263Z,20.11
2019-06-26T01:24:57.249Z,20.07
2019-06-26T01:25:57.248Z,20.10
2019-06-26T01:26:57.224Z,20.15
2019-06-26T01:27:57.215Z,20.04
2019-06-26T01:28:57.213Z,20.02
2019-06-26T01:29:57.202Z,20.11
2019-06-26T01:30:57.181Z,20.11
2019-06-26T01:31:57.173Z,20.14
2019-06-26T01:32:57.163Z,20.10
2019-06-26T01:33:57.150Z,20.10
2019-06-26T01:34:57.140Z,20.10
2019-06-26T01:35:57.129Z,20.10
2019-06-26T01:36:57.117Z,20.08
2019-06-26T01:37:57.107Z,20.14
2019-06-26T01:38:57.097Z,20.08
2019-06-26T01:39:57.085Z,20.08
2019-06-26T01:40:57.077Z,20.03
2019-06-26T01:41:57.066Z,20.07
2019-06-26T01:42:57.055Z,19.99
2019-06-26T01:43:57.045Z,20.00
2019-06-26T01:44:57.031Z,19.99
2019-06-26T01:45:57.022Z,19.97
2019-06-26T01:46:57.009Z,19.96
2019-06-26T01:47:57.000Z,19.93
2019-06-26T01:48:56.986Z,19.85
2019-06-26T01:49:56.991Z,19.84
2019-06-26T01:50:56.970Z,19.87
2019-06-26T01:51:56.976Z,19.82
2019-06-26T01:52:56.951Z,19.74
2019-06-26T01:53:56.939Z,19.78
2019-06-26T01:54:56.924Z,19.79
2019-06-26T01:55:56.912Z,19.79
2019-06-26T01:56:56.903Z,19.84
2019-06-26T01:57:56.898Z,19.71
2019-06-26T01:58:56.883Z,19.67
2019-06-26T01:59:56.876Z,19.74
2019-06-26T02:00:56.861Z,19.71
2019-06-26T02:01:56.852Z,19.78
2019-06-26T02:02:56.839Z,19.75
2019-06-26T02:03:56.849Z,19.74
2019-06-26T02:04:56.828Z,19.72
2019-06-26T02:05:56.805Z,19.75
2019-06-26T02:06:56.812Z,19.67
2019-06-26T02:07:56.787Z,19.64
2019-06-26T02:08:56.775Z,19.63
2019-06-26T02:09:56.764Z,19.66
2019-06-26T02:10:56.754Z,19.64
2019-06-26T02:12:00.285Z,19.71
2019-06-26T02:12:56.730Z,19.64
2019-06-26T02:13:56.719Z,19.60
2019-06-26T02:14:56.712Z,19.66
2019-06-26T02:15:56.702Z,19.63
2019-06-26T02:16:56.725Z,19.59
2019-06-26T02:17:56.672Z,19.55
2019-06-26T02:18:56.665Z,19.57
2019-06-26T02:19:56.657Z,19.60
2019-06-26T02:20:56.648Z,19.62
2019-06-26T02:21:56.649Z,19.64
2019-06-26T02:22:56.620Z,19.63
2019-06-26T02:23:56.679Z,19.53
2019-06-26T02:24:56.619Z,19.62
2019-06-26T02:25:56.587Z,19.59
2019-06-26T02:26:56.581Z,19.49
2019-06-26T02:27:56.574Z,19.49
2019-06-26T02:28:56.555Z,19.47
2019-06-26T02:29:56.551Z,19.47
2019-06-26T02:30:56.534Z,19.59
2019-06-26T02:31:56.529Z,19.62
2019-06-26T02:32:56.511Z,19.56
2019-06-26T02:33:56.504Z,19.59
2019-06-26T02:34:56.494Z,19.47
2019-06-26T02:35:56.475Z,19.59
2019-06-26T02:36:56.467Z,19.52
2019-06-26T02:37:56.458Z,19.52
2019-06-26T02:38:56.491Z,19.45
2019-06-26T02:39:56.439Z,19.59
2019-06-26T02:40:56.421Z,19.63
2019-06-26T02:41:56.416Z,19.57
2019-06-26T02:42:56.510Z,19.59
2019-06-26T02:43:56.389Z,19.57
2019-06-26T02:44:56.374Z,19.62
2019-06-26T02:45:56.366Z,19.55
2019-06-26T02:47:13.595Z,19.53
2019-06-26T02:47:56.344Z,19.59
2019-06-26T02:48:56.337Z,19.59
2019-06-26T02:49:56.327Z,19.56
2019-06-26T02:50:56.308Z,19.59
2019-06-26T02:51:56.304Z,19.57
2019-06-26T02:52:56.294Z,19.55
2019-06-26T02:53:56.288Z,19.52
2019-06-26T02:54:56.272Z,19.52
2019-06-26T02:55:56.294Z,19.55
2019-06-26T02:56:56.251Z,19.56
2019-06-26T02:57:56.237Z,19.56
2019-06-26T02:58:56.269Z,19.59
2019-06-26T02:59:56.223Z,19.52
2019-06-26T03:00:56.214Z,19.53
2019-06-26T03:01:56.191Z,19.60
2019-06-26T03:02:56.180Z,19.49
2019-06-26T03:03:56.244Z,19.59
2019-06-26T03:04:56.161Z,19.47
2019-06-26T03:05:56.150Z,19.59
2019-06-26T03:06:56.139Z,19.45
2019-06-26T03:07:56.128Z,19.47
2019-06-26T03:08:56.127Z,19.52
2019-06-26T03:09:56.105Z,19.56
2019-06-26T03:10:56.090Z,19.48
2019-06-26T03:11:56.080Z,19.49
2019-06-26T03:12:56.070Z,19.47
2019-06-26T03:13:56.058Z,19.56
2019-06-26T03:15:08.149Z,19.52
2019-06-26T03:15:56.035Z,19.55
2019-06-26T03:16:56.024Z,19.57
2019-06-26T03:17:56.059Z,19.53
2019-06-26T03:18:56.081Z,19.52
2019-06-26T03:19:55.989Z,19.60
2019-06-26T03:20:55.977Z,19.57
2019-06-26T03:21:55.970Z,19.49
2019-06-26T03:22:55.987Z,19.48
2019-06-26T03:23:55.952Z,19.53
2019-06-26T03:24:55.941Z,19.59
2019-06-26T03:25:55.931Z,19.57
2019-06-26T03:26:55.945Z,19.48
2019-06-26T03:27:55.910Z,19.63
2019-06-26T03:28:55.903Z,19.55
2019-06-26T03:29:55.884Z,19.57
2019-06-26T03:30:55.876Z,19.59
2019-06-26T03:31:55.862Z,19.60
2019-06-26T03:32:55.854Z,19.60
2019-06-26T03:33:55.838Z,19.62
2019-06-26T03:34:55.829Z,19.62
2019-06-26T03:35:55.826Z,19.60
2019-06-26T03:36:55.807Z,19.62
2019-06-26T03:37:55.794Z,19.59
2019-06-26T03:38:55.786Z,19.67
2019-06-26T03:39:55.775Z,19.64
2019-06-26T03:40:55.769Z,19.64
2019-06-26T03:41:55.753Z,19.59
2019-06-26T03:42:55.747Z,19.59
2019-06-26T03:43:55.735Z,19.55
2019-06-26T03:44:55.721Z,19.47
2019-06-26T03:45:55.772Z,19.47
2019-06-26T03:46:55.694Z,19.49
2019-06-26T03:47:55.687Z,19.48
2019-06-26T03:48:55.675Z,19.55
2019-06-26T03:49:55.685Z,19.56
2019-06-26T03:50:55.669Z,19.45
2019-06-26T03:51:55.660Z,19.45
2019-06-26T03:52:55.671Z,19.47
2019-06-26T03:53:55.626Z,19.42
2019-06-26T03:54:55.610Z,19.39
2019-06-26T03:55:55.634Z,19.44
2019-06-26T03:56:55.585Z,19.35
2019-06-26T03:57:55.576Z,19.44
2019-06-26T03:58:55.578Z,19.26
2019-06-26T03:59:55.745Z,19.34
2019-06-26T04:00:55.605Z,19.37
2019-06-26T04:01:55.538Z,19.32
2019-06-26T04:02:55.535Z,19.34
2019-06-26T04:03:57.513Z,19.35
2019-06-26T04:04:55.527Z,19.32
2019-06-26T04:05:55.537Z,19.32
2019-06-26T04:06:55.478Z,19.44
2019-06-26T04:07:55.468Z,19.35
2019-06-26T04:08:55.463Z,19.38
2019-06-26T04:09:55.461Z,19.37
2019-06-26T04:10:55.432Z,19.45
2019-06-26T04:11:55.420Z,19.37
2019-06-26T04:12:55.410Z,19.45
2019-06-26T04:13:55.398Z,19.41
2019-06-26T04:14:55.391Z,19.45
2019-06-26T04:15:55.388Z,19.38
2019-06-26T04:16:55.364Z,19.42
2019-06-26T04:17:55.350Z,19.42
2019-06-26T04:18:55.341Z,19.44
2019-06-26T04:19:55.334Z,19.45
2019-06-26T04:20:55.324Z,19.56
2019-06-26T04:21:55.317Z,19.48
2019-06-26T04:22:55.302Z,19.52
2019-06-26T04:23:55.281Z,19.52
2019-06-26T04:24:55.278Z,19.59
2019-06-26T04:25:55.269Z,19.59
2019-06-26T04:26:55.255Z,19.48
2019-06-26T04:27:55.244Z,19.55
2019-06-26T04:28:55.286Z,19.52
2019-06-26T04:29:55.221Z,19.64
2019-06-26T04:30:55.217Z,19.59
2019-06-26T04:31:55.204Z,19.64
2019-06-26T04:32:55.193Z,19.71
2019-06-26T04:33:55.178Z,19.72
2019-06-26T04:34:55.175Z,19.78
2019-06-26T04:35:55.159Z,19.82
2019-06-26T04:36:55.147Z,19.89
2019-06-26T04:37:55.139Z,19.85
2019-06-26T04:38:55.138Z,19.93
2019-06-26T04:39:55.131Z,20.00
2019-06-26T04:40:55.109Z,20.03
2019-06-26T04:41:55.089Z,20.11
2019-06-26T04:42:55.082Z,20.08
2019-06-26T04:43:55.090Z,20.17
2019-06-26T04:44:55.056Z,20.17
2019-06-26T04:45:58.406Z,20.19
2019-06-26T04:46:55.041Z,20.30
2019-06-26T04:47:55.037Z,20.33
2019-06-26T04:48:55.019Z,20.39
2019-06-26T04:49:55.018Z,20.44
2019-06-26T04:50:54.993Z,20.53
2019-06-26T04:51:54.988Z,20.52
2019-06-26T04:52:54.979Z,20.56
2019-06-26T04:53:55.811Z,20.60
2019-06-26T04:54:54.957Z,20.67
2019-06-26T04:55:54.947Z,20.67
2019-06-26T04:56:54.936Z,20.77
2019-06-26T04:57:54.929Z,20.75
2019-06-26T04:58:54.912Z,20.82
2019-06-26T04:59:54.912Z,20.90
2019-06-26T05:00:54.894Z,20.85
2019-06-26T05:01:54.890Z,20.90
2019-06-26T05:02:54.873Z,21.05
2019-06-26T05:03:54.866Z,21.07
2019-06-26T05:04:54.856Z,21.19
2019-06-26T05:05:54.847Z,21.19
2019-06-26T05:06:54.844Z,21.30
2019-06-26T05:07:54.842Z,21.33
2019-06-26T05:08:54.819Z,21.50
2019-06-26T05:09:54.811Z,21.38
2019-06-26T05:10:54.797Z,21.58
2019-06-26T05:11:54.805Z,21.63
2019-06-26T05:12:54.781Z,21.63
2019-06-26T05:13:54.770Z,21.77
2019-06-26T05:14:54.759Z,21.78
2019-06-26T05:15:54.751Z,21.83
2019-06-26T05:16:54.747Z,21.89
2019-06-26T05:17:54.734Z,21.94
2019-06-26T05:18:54.719Z,22.06
2019-06-26T05:19:54.713Z,22.03
2019-06-26T05:20:54.706Z,22.15
2019-06-26T05:21:54.697Z,22.22
2019-06-26T05:22:54.830Z,22.33
2019-06-26T05:23:54.682Z,22.43
2019-06-26T05:24:54.704Z,22.49
2019-06-26T05:25:54.714Z,22.49
2019-06-26T05:26:54.703Z,22.65
2019-06-26T05:27:54.657Z,22.77
2019-06-26T05:28:54.634Z,22.88
2019-06-26T05:29:54.663Z,22.93
2019-06-26T05:30:54.645Z,22.96
2019-06-26T05:31:54.605Z,22.98
2019-06-26T05:32:54.603Z,23.17
2019-06-26T05:33:54.594Z,23.28
2019-06-26T05:34:54.635Z,23.42
2019-06-26T05:35:54.582Z,23.45
2019-06-26T05:36:54.584Z,23.54
2019-06-26T05:37:54.584Z,23.66
2019-06-26T05:38:54.551Z,23.69
2019-06-26T05:39:54.905Z,23.71
2019-06-26T05:40:54.545Z,23.69
2019-06-26T05:41:54.527Z,23.81
2019-06-26T05:42:54.568Z,23.76
2019-06-26T05:43:54.509Z,23.85
2019-06-26T05:44:54.513Z,23.88
2019-06-26T05:45:54.515Z,24.03
2019-06-26T05:46:55.077Z,23.99
2019-06-26T05:47:54.486Z,24.07
2019-06-26T05:48:54.481Z,24.16
2019-06-26T05:49:54.470Z,24.21
2019-06-26T05:50:54.463Z,24.25
2019-06-26T05:51:54.457Z,24.36
2019-06-26T05:52:54.452Z,24.43
2019-06-26T05:53:54.443Z,24.48
2019-06-26T05:54:54.515Z,24.59
2019-06-26T05:55:54.486Z,24.61
2019-06-26T05:56:54.423Z,24.68
2019-06-26T05:57:54.419Z,24.68
2019-06-26T05:58:54.414Z,24.86
2019-06-26T05:59:54.394Z,24.89
2019-06-26T06:00:54.391Z,24.96
2019-06-26T06:01:54.384Z,24.94
2019-06-26T06:02:54.377Z,25.11
2019-06-26T06:03:54.378Z,25.14
2019-06-26T06:04:54.365Z,25.24
2019-06-26T06:05:54.357Z,25.33
2019-06-26T06:06:54.348Z,25.24
2019-06-26T06:07:54.342Z,25.34
2019-06-26T06:08:54.341Z,25.40
2019-06-26T06:09:54.353Z,25.54
2019-06-26T06:10:57.998Z,25.59
2019-06-26T06:11:54.344Z,25.63
2019-06-26T06:12:54.309Z,25.73
2019-06-26T06:13:54.307Z,25.76
2019-06-26T06:14:54.302Z,25.81
2019-06-26T06:15:54.299Z,25.89
2019-06-26T06:16:54.291Z,25.93
2019-06-26T06:17:54.285Z,25.93
2019-06-26T06:18:54.280Z,26.03
2019-06-26T06:19:54.277Z,26.01
2019-06-26T06:20:54.291Z,26.01
2019-06-26T06:21:54.258Z,26.22
2019-06-26T06:22:54.253Z,26.16
2019-06-26T06:23:54.253Z,26.30
2019-06-26T06:24:54.245Z,26.34
2019-06-26T06:25:54.238Z,26.33
2019-06-26T06:26:54.226Z,26.42
2019-06-26T06:27:54.245Z,26.45
2019-06-26T06:28:54.221Z,26.56
2019-06-26T06:29:54.234Z,26.55
2019-06-26T06:30:54.209Z,26.61
2019-06-26T06:31:54.203Z,26.70
2019-06-26T06:32:54.195Z,26.74
2019-06-26T06:33:54.189Z,26.88
2019-06-26T06:34:54.186Z,26.91
2019-06-26T06:35:54.182Z,26.88
2019-06-26T06:36:54.175Z,26.98
2019-06-26T06:37:54.187Z,27.03
2019-06-26T06:38:54.165Z,27.08
2019-06-26T06:39:54.159Z,27.11
2019-06-26T06:40:54.174Z,27.16
2019-06-26T06:41:54.177Z,27.15
2019-06-26T06:42:54.152Z,27.25
2019-06-26T06:43:55.120Z,27.22
2019-06-26T06:44:54.134Z,27.19
2019-06-26T06:45:54.132Z,27.20
2019-06-26T06:47:03.745Z,27.22
2019-06-26T06:47:54.124Z,27.26
2019-06-26T06:48:54.115Z,27.37
2019-06-26T06:49:54.111Z,27.35
2019-06-26T06:50:54.106Z,27.48
2019-06-26T06:51:54.104Z,27.45
2019-06-26T06:52:54.101Z,27.55
2019-06-26T06:53:54.089Z,27.67
2019-06-26T06:54:54.088Z,27.68
2019-06-26T06:55:54.088Z,27.79
2019-06-26T06:56:54.075Z,27.82
2019-06-26T06:57:54.073Z,27.76
2019-06-26T06:58:54.066Z,27.85
2019-06-26T06:59:54.061Z,27.94
2019-06-26T07:00:54.057Z,27.90
2019-06-26T07:01:54.061Z,27.95
2019-06-26T07:02:54.062Z,27.93
2019-06-26T07:03:54.049Z,27.93
2019-06-26T07:04:54.053Z,27.98
2019-06-26T07:05:54.037Z,27.94
2019-06-26T07:06:54.035Z,28.01
2019-06-26T07:07:54.025Z,28.01
2019-06-26T07:08:54.023Z,28.13
2019-06-26T07:09:54.019Z,28.13
2019-06-26T07:10:54.034Z,28.10
2019-06-26T07:11:54.006Z,28.28
2019-06-26T07:12:54.002Z,28.22
2019-06-26T07:13:54.008Z,28.50
2019-06-26T07:14:53.997Z,28.52
2019-06-26T07:15:53.994Z,28.45
2019-06-26T07:16:53.991Z,28.55
2019-06-26T07:17:53.987Z,28.67
2019-06-26T07:18:53.983Z,28.67
2019-06-26T07:19:53.986Z,28.67
2019-06-26T07:20:53.976Z,28.70
2019-06-26T07:21:53.988Z,28.83
2019-06-26T07:22:53.971Z,28.75
2019-06-26T07:23:53.968Z,28.90
2019-06-26T07:24:53.976Z,28.92
2019-06-26T07:25:53.960Z,28.90
2019-06-26T07:26:54.248Z,29.00
2019-06-26T07:27:56.017Z,29.09
2019-06-26T07:28:54.754Z,29.10
2019-06-26T07:29:54.249Z,29.16
2019-06-26T07:30:53.946Z,29.24
2019-06-26T07:31:57.362Z,29.43
2019-06-26T07:33:56.006Z,29.59
2019-06-26T07:34:54.463Z,29.67
2019-06-26T07:35:53.931Z,29.81
2019-06-26T07:36:54.123Z,29.87
2019-06-26T07:37:53.930Z,30.02
2019-06-26T07:38:54.032Z,30.10
2019-06-26T07:39:57.744Z,30.10
2019-06-26T07:40:53.920Z,30.17
2019-06-26T07:41:53.925Z,30.13
2019-06-26T07:42:53.910Z,30.21
2019-06-26T07:43:53.912Z,30.29
2019-06-26T07:44:53.909Z,30.38
2019-06-26T07:45:53.904Z,30.44
2019-06-26T07:46:53.908Z,30.48
2019-06-26T07:47:53.905Z,30.55
2019-06-26T07:48:57.363Z,30.59
2019-06-26T07:49:53.902Z,30.69
2019-06-26T07:50:53.899Z,30.71
2019-06-26T07:51:53.900Z,30.70
2019-06-26T07:52:53.894Z,30.76
2019-06-26T07:53:53.952Z,30.91
2019-06-26T07:54:53.892Z,31.05
2019-06-26T07:55:53.891Z,31.13
2019-06-26T07:56:53.886Z,31.18
2019-06-26T07:57:53.886Z,31.15
2019-06-26T07:58:53.886Z,31.18
2019-06-26T07:59:53.882Z,31.17
2019-06-26T08:00:53.881Z,31.28
2019-06-26T08:01:53.882Z,31.37
2019-06-26T08:02:53.899Z,31.47
2019-06-26T08:03:53.885Z,31.54
2019-06-26T08:04:53.878Z,31.67
2019-06-26T08:05:53.877Z,31.77
2019-06-26T08:06:53.875Z,31.82
2019-06-26T08:07:53.873Z,31.98
2019-06-26T08:08:53.878Z,32.04
2019-06-26T08:09:53.894Z,32.17
2019-06-26T08:10:53.870Z,32.24
2019-06-26T08:11:53.870Z,32.29
2019-06-26T08:12:53.873Z,32.38
2019-06-26T08:13:53.872Z,32.54
2019-06-26T08:14:53.869Z,32.64
2019-06-26T08:15:53.866Z,32.73
2019-06-26T08:16:53.873Z,32.82
2019-06-26T08:18:00.490Z,32.81
2019-06-26T08:18:53.866Z,32.88
2019-06-26T08:19:53.865Z,32.93
2019-06-26T08:21:11.033Z,33.04
2019-06-26T08:21:53.869Z,33.10
2019-06-26T08:22:53.862Z,33.19
2019-06-26T08:23:53.862Z,33.22
2019-06-26T08:24:53.868Z,33.32
2019-06-26T08:25:53.863Z,33.38
2019-06-26T08:26:53.870Z,33.48
2019-06-26T08:27:53.865Z,33.61
2019-06-26T08:28:53.859Z,33.66
2019-06-26T08:29:53.865Z,33.77
2019-06-26T08:30:53.864Z,34.02
2019-06-26T08:31:53.859Z,34.02
2019-06-26T08:32:53.866Z,34.03
2019-06-26T08:33:53.889Z,34.11
2019-06-26T08:34:53.879Z,34.21
2019-06-26T08:35:53.877Z,34.35
2019-06-26T08:36:53.858Z,34.47
2019-06-26T08:38:08.914Z,34.60
2019-06-26T08:38:53.863Z,34.59
2019-06-26T08:39:53.889Z,34.75
2019-06-26T08:40:53.861Z,34.58
2019-06-26T08:41:53.866Z,34.69
2019-06-26T08:42:53.884Z,34.82
2019-06-26T08:43:53.867Z,34.91
2019-06-26T08:44:53.883Z,35.12
2019-06-26T08:45:53.881Z,35.05
2019-06-26T08:46:53.884Z,35.19
2019-06-26T08:47:53.977Z,35.37
2019-06-26T08:48:53.896Z,35.60
2019-06-26T08:49:53.877Z,35.78
2019-06-26T08:50:53.868Z,35.79
2019-06-26T08:51:53.900Z,35.79
2019-06-26T08:52:53.889Z,35.72
2019-06-26T08:53:53.871Z,35.75
2019-06-26T08:54:53.872Z,35.82
2019-06-26T08:55:53.883Z,35.87
2019-06-26T08:56:53.881Z,36.00
2019-06-26T08:57:53.879Z,36.17
2019-06-26T08:58:53.880Z,36.17
2019-06-26T08:59:53.890Z,36.18
2019-06-26T09:00:53.880Z,36.22
2019-06-26T09:01:53.895Z,36.14
2019-06-26T09:02:53.879Z,36.09
2019-06-26T09:03:53.883Z,36.13
2019-06-26T09:04:53.886Z,36.17
2019-06-26T09:05:53.888Z,36.13
2019-06-26T09:06:53.886Z,36.18
2019-06-26T09:07:53.914Z,36.16
2019-06-26T09:08:53.884Z,36.06
2019-06-26T09:09:53.884Z,36.17
2019-06-26T09:10:53.887Z,36.28
2019-06-26T09:11:53.891Z,36.48
2019-06-26T09:12:53.893Z,36.43
2019-06-26T09:13:53.894Z,36.44
2019-06-26T09:14:53.901Z,36.78
2019-06-26T09:15:53.901Z,36.92
2019-06-26T09:16:53.898Z,37.10
2019-06-26T09:17:53.925Z,37.36
2019-06-26T09:18:53.902Z,37.41
2019-06-26T09:19:53.901Z,37.50
2019-06-26T09:20:53.908Z,37.78
2019-06-26T09:21:53.908Z,37.78
2019-06-26T09:22:53.910Z,37.88
2019-06-26T09:23:53.910Z,37.90
2019-06-26T09:24:53.918Z,38.04
2019-06-26T09:25:53.919Z,38.19
2019-06-26T09:26:53.911Z,38.36
2019-06-26T09:27:53.921Z,38.65
2019-06-26T09:28:53.924Z,38.90
2019-06-26T09:29:53.924Z,39.10
2019-06-26T09:30:53.923Z,39.42
2019-06-26T09:31:53.926Z,39.67
2019-06-26T09:32:53.932Z,39.94
2019-06-26T09:33:53.934Z,40.24
2019-06-26T09:34:53.946Z,40.48
2019-06-26T09:35:53.935Z,40.80
2019-06-26T09:36:53.943Z,41.03
2019-06-26T09:37:53.946Z,41.04
2019-06-26T09:38:57.760Z,41.10
2019-06-26T09:39:53.946Z,40.99
2019-06-26T09:40:53.953Z,41.04
2019-06-26T09:41:53.954Z,41.04
2019-06-26T09:42:53.956Z,41.07
2019-06-26T09:43:53.953Z,41.11
2019-06-26T09:44:53.963Z,41.14
2019-06-26T09:45:53.966Z,41.14
2019-06-26T09:46:53.967Z,41.07
2019-06-26T09:47:53.974Z,41.03
2019-06-26T09:48:53.981Z,41.03
2019-06-26T09:49:53.981Z,41.05
2019-06-26T09:50:53.990Z,41.11
2019-06-26T09:51:53.986Z,41.10
2019-06-26T09:52:53.990Z,41.17
2019-06-26T09:53:53.993Z,41.20
2019-06-26T09:54:53.996Z,41.36
2019-06-26T09:55:54.004Z,41.33
2019-06-26T09:56:53.999Z,41.39
2019-06-26T09:57:54.014Z,41.46
2019-06-26T09:58:54.010Z,41.53
2019-06-26T09:59:54.015Z,41.57
2019-06-26T10:00:54.023Z,41.58
2019-06-26T10:01:54.021Z,41.65
2019-06-26T10:02:54.026Z,41.68
2019-06-26T10:03:54.034Z,41.76
2019-06-26T10:04:54.065Z,41.83
2019-06-26T10:05:54.037Z,41.84
2019-06-26T10:06:54.042Z,42.05
2019-06-26T10:07:54.041Z,42.21
2019-06-26T10:08:54.712Z,42.43
2019-06-26T10:09:54.049Z,42.56
2019-06-26T10:10:54.055Z,42.65
2019-06-26T10:11:54.060Z,42.68
2019-06-26T10:12:54.063Z,42.74
2019-06-26T10:13:54.064Z,42.80
2019-06-26T10:14:54.063Z,42.86
2019-06-26T10:15:54.076Z,42.90
2019-06-26T10:16:54.076Z,42.89
2019-06-26T10:17:54.078Z,42.78
2019-06-26T10:19:08.875Z,42.66
2019-06-26T10:19:54.326Z,42.73
2019-06-26T10:20:54.098Z,42.73
2019-06-26T10:21:54.104Z,42.80
2019-06-26T10:22:54.099Z,42.96
2019-06-26T10:23:54.108Z,43.00
2019-06-26T10:24:54.110Z,43.14
2019-06-26T10:25:54.119Z,43.28
2019-06-26T10:26:54.123Z,43.34
2019-06-26T10:27:54.124Z,43.49
2019-06-26T10:28:54.127Z,43.49
2019-06-26T10:29:54.134Z,43.50
2019-06-26T10:30:54.139Z,43.49
2019-06-26T10:31:54.147Z,43.46
2019-06-26T10:32:54.149Z,43.44
2019-06-26T10:33:54.151Z,43.47
2019-06-26T10:34:54.157Z,43.57
2019-06-26T10:35:54.163Z,43.81
2019-06-26T10:36:54.167Z,43.84
2019-06-26T10:37:54.172Z,43.84
2019-06-26T10:38:54.188Z,43.95
2019-06-26T10:39:54.194Z,44.06
2019-06-26T10:40:54.187Z,44.14
2019-06-26T10:41:55.182Z,44.09
2019-06-26T10:42:54.195Z,43.95
2019-06-26T10:43:54.202Z,43.94
2019-06-26T10:44:54.213Z,43.94
2019-06-26T10:45:54.211Z,43.99
2019-06-26T10:46:54.219Z,44.09
2019-06-26T10:47:54.226Z,44.14
2019-06-26T10:48:54.230Z,44.04
2019-06-26T10:49:54.243Z,44.18
2019-06-26T10:50:58.529Z,44.19
2019-06-26T10:51:54.244Z,44.18
2019-06-26T10:52:54.251Z,44.25
2019-06-26T10:53:54.254Z,44.41
2019-06-26T10:54:54.259Z,44.47
2019-06-26T10:55:54.270Z,44.64
2019-06-26T10:56:54.273Z,44.72
2019-06-26T10:57:54.280Z,44.91
2019-06-26T10:58:54.283Z,44.99
2019-06-26T10:59:55.801Z,45.08
2019-06-26T11:00:54.295Z,45.17
2019-06-26T11:01:54.308Z,45.23
2019-06-26T11:02:54.339Z,45.26
2019-06-26T11:03:54.312Z,45.29
2019-06-26T11:04:54.313Z,45.30
2019-06-26T11:05:54.325Z,45.35
2019-06-26T11:06:54.331Z,45.39
2019-06-26T11:07:54.332Z,45.37
2019-06-26T11:08:54.350Z,45.32
2019-06-26T11:09:54.349Z,45.24
2019-06-26T11:10:54.353Z,45.29
2019-06-26T11:11:54.384Z,45.37
2019-06-26T11:12:54.366Z,45.37
2019-06-26T11:13:54.372Z,45.35
2019-06-26T11:14:54.378Z,45.43
2019-06-26T11:15:54.387Z,45.52
2019-06-26T11:16:54.391Z,45.55
2019-06-26T11:17:54.398Z,45.82
2019-06-26T11:18:54.402Z,45.85
2019-06-26T11:19:55.700Z,45.86
2019-06-26T11:20:54.424Z,45.90
2019-06-26T11:21:54.425Z,45.86
2019-06-26T11:22:54.427Z,45.97
2019-06-26T11:23:54.435Z,45.90
2019-06-26T11:24:54.441Z,45.97
2019-06-26T11:25:54.455Z,46.00
2019-06-26T11:26:54.456Z,45.92
2019-06-26T11:27:54.461Z,45.93
2019-06-26T11:28:54.470Z,46.08
2019-06-26T11:29:54.485Z,46.09
2019-06-26T11:30:54.483Z,46.02
2019-06-26T11:31:54.491Z,46.08
2019-06-26T11:32:54.498Z,45.90
2019-06-26T11:33:54.502Z,45.85
2019-06-26T11:34:54.509Z,45.78
2019-06-26T11:35:54.515Z,45.71
2019-06-26T11:37:03.589Z,45.89
2019-06-26T11:37:54.529Z,46.08
2019-06-26T11:38:54.566Z,46.32
2019-06-26T11:39:54.543Z,46.34
2019-06-26T11:40:54.549Z,46.35
2019-06-26T11:41:54.555Z,46.50
2019-06-26T11:42:54.567Z,46.47
2019-06-26T11:43:54.580Z,46.56
2019-06-26T11:44:54.584Z,46.59
2019-06-26T11:45:54.624Z,46.59
2019-06-26T11:46:54.594Z,46.50
2019-06-26T11:47:54.601Z,46.50
2019-06-26T11:48:54.609Z,46.59
2019-06-26T11:49:59.898Z,46.61
2019-06-26T11:50:54.631Z,46.70
2019-06-26T11:51:54.635Z,46.70
2019-06-26T11:52:54.681Z,46.70
2019-06-26T11:53:54.646Z,46.92
2019-06-26T11:55:02.603Z,47.06
2019-06-26T11:55:54.661Z,47.11
2019-06-26T11:56:54.664Z,47.21
2019-06-26T11:57:54.675Z,47.18
2019-06-26T11:58:54.686Z,47.18
2019-06-26T11:59:54.693Z,47.23
2019-06-26T12:00:54.765Z,47.23
2019-06-26T12:01:54.713Z,47.18
2019-06-26T12:02:54.713Z,47.06
2019-06-26T12:03:54.721Z,47.03
2019-06-26T12:04:54.732Z,47.02
2019-06-26T12:06:07.635Z,47.06
2019-06-26T12:06:54.750Z,47.04
2019-06-26T12:07:54.830Z,47.16
2019-06-26T12:08:54.771Z,47.19
2019-06-26T12:09:54.871Z,47.35
2019-06-26T12:10:54.782Z,47.47
2019-06-26T12:11:54.796Z,47.45
2019-06-26T12:12:54.814Z,47.42
2019-06-26T12:13:54.815Z,47.50
2019-06-26T12:14:54.821Z,47.53
2019-06-26T12:15:54.832Z,47.62
2019-06-26T12:16:54.848Z,47.58
2019-06-26T12:17:54.849Z,47.72
2019-06-26T12:18:54.861Z,47.79
2019-06-26T12:19:54.871Z,47.64
2019-06-26T12:20:54.897Z,47.50
2019-06-26T12:21:54.890Z,47.55
2019-06-26T12:22:54.901Z,47.47
2019-06-26T12:23:54.910Z,47.34
2019-06-26T12:24:55.103Z,47.19
2019-06-26T12:25:54.927Z,47.16
2019-06-26T12:26:54.940Z,47.14
2019-06-26T12:27:54.944Z,47.14
2019-06-26T12:28:54.955Z,47.09
2019-06-26T12:29:54.966Z,47.12
2019-06-26T12:30:54.974Z,47.16
2019-06-26T12:31:54.986Z,47.15
2019-06-26T12:33:02.806Z,47.26
2019-06-26T12:33:55.009Z,47.41
2019-06-26T12:34:55.017Z,47.55
2019-06-26T12:35:55.026Z,47.62
2019-06-26T12:36:55.113Z,47.57
2019-06-26T12:37:55.067Z,47.58
2019-06-26T12:38:55.058Z,47.64
2019-06-26T12:39:55.193Z,47.61
2019-06-26T12:40:55.083Z,47.35
2019-06-26T12:41:55.088Z,47.30
2019-06-26T12:42:55.865Z,47.12
2019-06-26T12:43:55.121Z,46.78
2019-06-26T12:44:55.123Z,46.55
2019-06-26T12:45:55.129Z,46.44
2019-06-26T12:46:55.140Z,46.50
2019-06-26T12:47:55.159Z,46.53
2019-06-26T12:48:55.167Z,46.56
2019-06-26T12:49:55.179Z,46.46
2019-06-26T12:50:55.193Z,46.46
2019-06-26T12:51:55.201Z,46.51
2019-06-26T12:52:55.261Z,46.46
2019-06-26T12:53:58.408Z,46.51